sensor_id;sensor_type;location;lat;lon;timestamp;pressure;altitude;pressure_sealevel;temperature;humidity
68822;BME280;55834;50.870;4.606;2023-07-28T00:02:15;99920.63;;;17.03;66.61
68822;BME280;55834;50.870;4.606;2023-07-28T00:04:40;99917.75;;;17.06;65.82
68822;BME280;55834;50.870;4.606;2023-07-28T00:07:06;99919.47;;;17.07;66.57
68822;BME280;55834;50.870;4.606;2023-07-28T00:09:31;99916.13;;;16.91;66.86
68822;BME280;55834;50.870;4.606;2023-07-28T00:11:57;99919.88;;;17.01;65.84
68822;BME280;55834;50.870;4.606;2023-07-28T00:14:23;99921.91;;;16.98;66.10
68822;BME280;55834;50.870;4.606;2023-07-28T00:16:50;99921.88;;;16.85;65.86
68822;BME280;55834;50.870;4.606;2023-07-28T00:19:16;99917.13;;;17.16;66.45
68822;BME280;55834;50.870;4.606;2023-07-28T00:21:41;99916.38;;;17.01;66.30
68822;BME280;55834;50.870;4.606;2023-07-28T00:24:06;99913.91;;;17.36;66.11
68822;BME280;55834;50.870;4.606;2023-07-28T00:26:32;99915.44;;;17.40;65.79
68822;BME280;55834;50.870;4.606;2023-07-28T00:28:57;99918.31;;;17.11;65.38
68822;BME280;55834;50.870;4.606;2023-07-28T00:31:24;99922.03;;;17.22;65.60
68822;BME280;55834;50.870;4.606;2023-07-28T00:33:49;99912.13;;;17.11;66.47
68822;BME280;55834;50.870;4.606;2023-07-28T00:36:15;99915.16;;;16.92;67.23
68822;BME280;55834;50.870;4.606;2023-07-28T00:38:40;99918.88;;;16.77;66.81
68822;BME280;55834;50.870;4.606;2023-07-28T00:41:05;99914.69;;;16.73;67.24
68822;BME280;55834;50.870;4.606;2023-07-28T00:43:31;99911.28;;;16.83;68.05
68822;BME280;55834;50.870;4.606;2023-07-28T00:45:56;99931.34;;;16.89;67.13
68822;BME280;55834;50.870;4.606;2023-07-28T00:48:22;99912.97;;;16.72;68.70
68822;BME280;55834;50.870;4.606;2023-07-28T00:50:48;99914.69;;;16.73;67.23
68822;BME280;55834;50.870;4.606;2023-07-28T00:53:15;99912.00;;;16.73;67.62
68822;BME280;55834;50.870;4.606;2023-07-28T00:55:41;99917.38;;;16.18;69.14
68822;BME280;55834;50.870;4.606;2023-07-28T00:58:08;99912.34;;;16.81;67.96
68822;BME280;55834;50.870;4.606;2023-07-28T01:00:33;99911.88;;;17.01;67.05
68822;BME280;55834;50.870;4.606;2023-07-28T01:02:59;99913.13;;;16.96;67.22
68822;BME280;55834;50.870;4.606;2023-07-28T01:05:32;99916.00;;;16.92;67.49
68822;BME280;55834;50.870;4.606;2023-07-28T01:08:06;99926.63;;;15.98;69.29
68822;BME280;55834;50.870;4.606;2023-07-28T01:10:38;99921.66;;;16.21;69.31
68822;BME280;55834;50.870;4.606;2023-07-28T01:13:03;99924.81;;;16.67;69.09
68822;BME280;55834;50.870;4.606;2023-07-28T01:15:29;99929.94;;;16.43;68.16
68822;BME280;55834;50.870;4.606;2023-07-28T01:17:54;99926.56;;;16.94;67.41
68822;BME280;55834;50.870;4.606;2023-07-28T01:20:22;99922.56;;;17.01;67.07
68822;BME280;55834;50.870;4.606;2023-07-28T01:23:08;99923.47;;;16.87;67.77
68822;BME280;55834;50.870;4.606;2023-07-28T01:28:20;99928.34;;;17.21;66.94
68822;BME280;55834;50.870;4.606;2023-07-28T01:30:46;99925.66;;;17.21;66.24
68822;BME280;55834;50.870;4.606;2023-07-28T01:33:11;99926.03;;;16.89;66.89
68822;BME280;55834;50.870;4.606;2023-07-28T01:35:37;99922.00;;;16.96;66.67
68822;BME280;55834;50.870;4.606;2023-07-28T01:38:05;99921.31;;;17.20;67.21
68822;BME280;55834;50.870;4.606;2023-07-28T01:40:31;99914.56;;;16.61;68.84
68822;BME280;55834;50.870;4.606;2023-07-28T01:42:56;99925.41;;;16.58;69.01
68822;BME280;55834;50.870;4.606;2023-07-28T01:45:22;99928.53;;;16.65;68.52
68822;BME280;55834;50.870;4.606;2023-07-28T01:47:47;99925.53;;;17.09;67.79
68822;BME280;55834;50.870;4.606;2023-07-28T01:50:13;99926.38;;;16.57;68.56
68822;BME280;55834;50.870;4.606;2023-07-28T01:52:38;99928.44;;;17.06;68.25
68822;BME280;55834;50.870;4.606;2023-07-28T01:55:04;99930.38;;;16.90;67.38
68822;BME280;55834;50.870;4.606;2023-07-28T01:57:33;99935.31;;;16.15;68.94
68822;BME280;55834;50.870;4.606;2023-07-28T01:59:59;99932.66;;;16.56;68.78
68822;BME280;55834;50.870;4.606;2023-07-28T02:02:24;99925.66;;;17.08;68.64
68822;BME280;55834;50.870;4.606;2023-07-28T02:04:49;99929.94;;;16.43;69.74
68822;BME280;55834;50.870;4.606;2023-07-28T02:07:15;99929.06;;;16.97;68.69
68822;BME280;55834;50.870;4.606;2023-07-28T02:09:40;99929.19;;;16.81;67.47
68822;BME280;55834;50.870;4.606;2023-07-28T02:12:06;99932.50;;;17.25;66.87
68822;BME280;55834;50.870;4.606;2023-07-28T02:14:31;99933.88;;;17.30;66.17
68822;BME280;55834;50.870;4.606;2023-07-28T02:16:57;99929.19;;;17.21;65.48
68822;BME280;55834;50.870;4.606;2023-07-28T02:19:22;99940.81;;;16.80;66.52
68822;BME280;55834;50.870;4.606;2023-07-28T02:21:47;99944.88;;;16.46;69.58
68822;BME280;55834;50.870;4.606;2023-07-28T02:24:13;99938.91;;;16.82;69.33
68822;BME280;55834;50.870;4.606;2023-07-28T02:26:38;99944.94;;;16.59;68.97
68822;BME280;55834;50.870;4.606;2023-07-28T02:29:04;99935.22;;;16.31;69.10
68822;BME280;55834;50.870;4.606;2023-07-28T02:31:29;99940.97;;;16.91;68.28
68822;BME280;55834;50.870;4.606;2023-07-28T02:33:55;99942.19;;;17.00;67.30
68822;BME280;55834;50.870;4.606;2023-07-28T02:36:20;99935.38;;;17.34;67.28
68822;BME280;55834;50.870;4.606;2023-07-28T02:38:45;99945.94;;;17.36;65.88
68822;BME280;55834;50.870;4.606;2023-07-28T02:41:11;99942.31;;;17.11;67.03
68822;BME280;55834;50.870;4.606;2023-07-28T02:43:37;99942.22;;;17.26;66.27
68822;BME280;55834;50.870;4.606;2023-07-28T02:46:04;99942.81;;;17.04;66.67
68822;BME280;55834;50.870;4.606;2023-07-28T02:48:30;99945.00;;;17.37;65.92
68822;BME280;55834;50.870;4.606;2023-07-28T02:50:55;99945.06;;;17.10;66.67
68822;BME280;55834;50.870;4.606;2023-07-28T02:53:21;99953.94;;;17.23;66.48
68822;BME280;55834;50.870;4.606;2023-07-28T02:55:47;99944.25;;;17.35;66.45
68822;BME280;55834;50.870;4.606;2023-07-28T02:58:13;99957.34;;;17.00;67.28
68822;BME280;55834;50.870;4.606;2023-07-28T03:00:40;99953.81;;;17.12;66.92
68822;BME280;55834;50.870;4.606;2023-07-28T03:03:06;99952.97;;;17.24;66.66
68822;BME280;55834;50.870;4.606;2023-07-28T03:05:32;99959.06;;;17.26;66.90
68822;BME280;55834;50.870;4.606;2023-07-28T03:07:58;99966.66;;;17.45;66.47
68822;BME280;55834;50.870;4.606;2023-07-28T03:10:23;99960.19;;;16.97;67.20
68822;BME280;55834;50.870;4.606;2023-07-28T03:12:49;99964.28;;;17.02;66.86
68822;BME280;55834;50.870;4.606;2023-07-28T03:15:14;99967.19;;;17.38;66.81
68822;BME280;55834;50.870;4.606;2023-07-28T03:17:39;99969.28;;;17.07;66.47
68822;BME280;55834;50.870;4.606;2023-07-28T03:20:05;99960.25;;;17.22;66.93
68822;BME280;55834;50.870;4.606;2023-07-28T03:22:31;99973.88;;;17.05;66.34
68822;BME280;55834;50.870;4.606;2023-07-28T03:24:56;99968.78;;;17.14;67.20
68822;BME280;55834;50.870;4.606;2023-07-28T03:27:22;99959.28;;;17.10;66.50
68822;BME280;55834;50.870;4.606;2023-07-28T03:29:47;99962.69;;;17.51;66.87
68822;BME280;55834;50.870;4.606;2023-07-28T03:32:12;99961.97;;;17.49;65.17
68822;BME280;55834;50.870;4.606;2023-07-28T03:34:38;99960.56;;;17.56;65.26
68822;BME280;55834;50.870;4.606;2023-07-28T03:37:03;99963.22;;;17.18;65.83
68822;BME280;55834;50.870;4.606;2023-07-28T03:39:29;99962.59;;;17.14;66.78
68822;BME280;55834;50.870;4.606;2023-07-28T03:41:56;99962.47;;;17.16;66.65
68822;BME280;55834;50.870;4.606;2023-07-28T03:44:21;99964.31;;;17.28;66.38
68822;BME280;55834;50.870;4.606;2023-07-28T03:46:47;99950.31;;;17.50;65.69
68822;BME280;55834;50.870;4.606;2023-07-28T03:49:12;99951.84;;;17.54;65.94
68822;BME280;55834;50.870;4.606;2023-07-28T03:51:38;99956.09;;;17.69;65.42
68822;BME280;55834;50.870;4.606;2023-07-28T03:54:03;99959.19;;;17.63;64.53
68822;BME280;55834;50.870;4.606;2023-07-28T03:56:28;99952.13;;;17.62;65.45
68822;BME280;55834;50.870;4.606;2023-07-28T03:58:54;99954.91;;;17.22;65.08
68822;BME280;55834;50.870;4.606;2023-07-28T04:01:19;99958.13;;;17.53;65.09
68822;BME280;55834;50.870;4.606;2023-07-28T04:03:47;99961.44;;;17.31;66.12
68822;BME280;55834;50.870;4.606;2023-07-28T04:06:12;99957.03;;;17.30;66.12
68822;BME280;55834;50.870;4.606;2023-07-28T04:08:38;99953.63;;;17.53;66.55
68822;BME280;55834;50.870;4.606;2023-07-28T04:11:04;99958.97;;;17.66;65.28
68822;BME280;55834;50.870;4.606;2023-07-28T04:13:29;99958.63;;;17.71;64.64
68822;BME280;55834;50.870;4.606;2023-07-28T04:15:54;99960.03;;;17.64;65.55
68822;BME280;55834;50.870;4.606;2023-07-28T04:18:20;99967.28;;;17.62;64.62
68822;BME280;55834;50.870;4.606;2023-07-28T04:20:45;99959.59;;;17.70;64.92
68822;BME280;55834;50.870;4.606;2023-07-28T04:23:12;99961.78;;;17.77;64.67
68822;BME280;55834;50.870;4.606;2023-07-28T04:25:37;99971.25;;;17.81;64.14
68822;BME280;55834;50.870;4.606;2023-07-28T04:28:02;99962.63;;;17.40;65.63
68822;BME280;55834;50.870;4.606;2023-07-28T04:30:28;99964.00;;;17.58;65.44
68822;BME280;55834;50.870;4.606;2023-07-28T04:32:53;99976.81;;;17.66;64.83
68822;BME280;55834;50.870;4.606;2023-07-28T04:35:19;99974.91;;;17.80;64.47
68822;BME280;55834;50.870;4.606;2023-07-28T04:37:44;99975.00;;;17.92;64.31
68822;BME280;55834;50.870;4.606;2023-07-28T04:40:10;99974.34;;;17.88;63.62
68822;BME280;55834;50.870;4.606;2023-07-28T04:42:35;99975.75;;;17.81;64.13
68822;BME280;55834;50.870;4.606;2023-07-28T04:45:02;99981.72;;;17.85;63.71
68822;BME280;55834;50.870;4.606;2023-07-28T04:47:27;99977.97;;;17.74;64.91
68822;BME280;55834;50.870;4.606;2023-07-28T04:49:52;99982.22;;;17.26;64.48
68822;BME280;55834;50.870;4.606;2023-07-28T04:52:18;99979.38;;;17.54;66.03
68822;BME280;55834;50.870;4.606;2023-07-28T04:54:43;99985.44;;;17.69;65.31
68822;BME280;55834;50.870;4.606;2023-07-28T04:57:09;99982.66;;;17.32;64.95
68822;BME280;55834;50.870;4.606;2023-07-28T04:59:34;99988.19;;;17.17;66.38
68822;BME280;55834;50.870;4.606;2023-07-28T05:01:59;99988.44;;;17.52;66.26
68822;BME280;55834;50.870;4.606;2023-07-28T05:04:25;99987.59;;;17.51;66.07
68822;BME280;55834;50.870;4.606;2023-07-28T05:06:50;99991.09;;;17.65;66.05
68822;BME280;55834;50.870;4.606;2023-07-28T05:09:16;100000.06;;;17.64;65.12
68822;BME280;55834;50.870;4.606;2023-07-28T05:11:41;99991.88;;;17.79;64.95
68822;BME280;55834;50.870;4.606;2023-07-28T05:14:06;100003.19;;;17.83;64.75
68822;BME280;55834;50.870;4.606;2023-07-28T05:16:34;99996.41;;;17.39;65.88
68822;BME280;55834;50.870;4.606;2023-07-28T05:19:00;100004.88;;;17.46;65.45
68822;BME280;55834;50.870;4.606;2023-07-28T05:21:25;100005.22;;;17.79;65.35
68822;BME280;55834;50.870;4.606;2023-07-28T05:23:50;100005.84;;;17.96;65.21
68822;BME280;55834;50.870;4.606;2023-07-28T05:26:16;100008.72;;;18.06;64.58
68822;BME280;55834;50.870;4.606;2023-07-28T05:28:42;100009.06;;;18.01;63.86
68822;BME280;55834;50.870;4.606;2023-07-28T05:31:07;100010.41;;;18.19;63.96
68822;BME280;55834;50.870;4.606;2023-07-28T05:33:33;100016.22;;;17.88;64.21
68822;BME280;55834;50.870;4.606;2023-07-28T05:36:03;100014.25;;;18.02;64.40
68822;BME280;55834;50.870;4.606;2023-07-28T05:38:28;100014.06;;;18.06;65.14
68822;BME280;55834;50.870;4.606;2023-07-28T05:40:58;100014.88;;;18.19;64.65
68822;BME280;55834;50.870;4.606;2023-07-28T05:43:25;100018.09;;;18.24;63.86
68822;BME280;55834;50.870;4.606;2023-07-28T05:45:51;100008.34;;;18.36;63.83
68822;BME280;55834;50.870;4.606;2023-07-28T05:48:16;100013.47;;;18.26;63.49
68822;BME280;55834;50.870;4.606;2023-07-28T05:50:42;100016.56;;;18.33;64.11
68822;BME280;55834;50.870;4.606;2023-07-28T05:53:07;100020.22;;;18.19;64.34
68822;BME280;55834;50.870;4.606;2023-07-28T05:55:32;100021.53;;;18.13;64.57
68822;BME280;55834;50.870;4.606;2023-07-28T05:57:58;100019.75;;;18.01;64.51
68822;BME280;55834;50.870;4.606;2023-07-28T06:00:23;100019.47;;;18.30;65.31
68822;BME280;55834;50.870;4.606;2023-07-28T06:02:49;100022.09;;;18.42;64.74
68822;BME280;55834;50.870;4.606;2023-07-28T06:05:14;100020.38;;;18.54;63.94
68822;BME280;55834;50.870;4.606;2023-07-28T06:07:40;100019.38;;;18.68;63.98
68822;BME280;55834;50.870;4.606;2023-07-28T06:10:05;100018.16;;;18.72;63.27
68822;BME280;55834;50.870;4.606;2023-07-28T06:12:31;100022.47;;;18.25;64.94
68822;BME280;55834;50.870;4.606;2023-07-28T06:14:56;100018.03;;;18.49;65.03
68822;BME280;55834;50.870;4.606;2023-07-28T06:17:22;100024.25;;;18.50;64.48
68822;BME280;55834;50.870;4.606;2023-07-28T06:19:47;100017.78;;;18.65;64.69
68822;BME280;55834;50.870;4.606;2023-07-28T06:22:12;100033.28;;;18.60;63.68
68822;BME280;55834;50.870;4.606;2023-07-28T06:24:38;100035.50;;;18.66;63.90
68822;BME280;55834;50.870;4.606;2023-07-28T06:27:03;100034.44;;;18.69;63.65
68822;BME280;55834;50.870;4.606;2023-07-28T06:29:33;100041.44;;;18.59;64.31
68822;BME280;55834;50.870;4.606;2023-07-28T06:31:58;100042.69;;;18.66;63.95
68822;BME280;55834;50.870;4.606;2023-07-28T06:34:24;100048.56;;;18.71;63.63
68822;BME280;55834;50.870;4.606;2023-07-28T06:36:49;100049.38;;;18.35;64.02
68822;BME280;55834;50.870;4.606;2023-07-28T06:39:15;100053.44;;;18.53;64.67
68822;BME280;55834;50.870;4.606;2023-07-28T06:41:40;100046.44;;;18.01;66.15
68822;BME280;55834;50.870;4.606;2023-07-28T06:44:05;100052.38;;;18.30;65.75
68822;BME280;55834;50.870;4.606;2023-07-28T06:46:33;100050.75;;;18.40;65.02
68822;BME280;55834;50.870;4.606;2023-07-28T06:49:00;100047.09;;;17.92;66.56
68822;BME280;55834;50.870;4.606;2023-07-28T06:51:25;100060.22;;;18.20;65.22
68822;BME280;55834;50.870;4.606;2023-07-28T06:53:51;100055.88;;;18.43;65.51
68822;BME280;55834;50.870;4.606;2023-07-28T06:56:16;100064.06;;;18.66;64.62
68822;BME280;55834;50.870;4.606;2023-07-28T06:58:42;100059.78;;;18.76;63.81
68822;BME280;55834;50.870;4.606;2023-07-28T07:01:07;100056.72;;;18.57;64.36
68822;BME280;55834;50.870;4.606;2023-07-28T07:03:36;100060.63;;;18.77;64.37
68822;BME280;55834;50.870;4.606;2023-07-28T07:06:01;100061.00;;;18.83;63.88
68822;BME280;55834;50.870;4.606;2023-07-28T07:08:27;100071.63;;;18.72;64.59
68822;BME280;55834;50.870;4.606;2023-07-28T07:10:53;100064.66;;;18.58;63.92
68822;BME280;55834;50.870;4.606;2023-07-28T07:13:18;100062.44;;;18.76;64.31
68822;BME280;55834;50.870;4.606;2023-07-28T07:15:45;100064.22;;;18.88;64.16
68822;BME280;55834;50.870;4.606;2023-07-28T07:18:10;100059.53;;;18.79;64.27
68822;BME280;55834;50.870;4.606;2023-07-28T07:20:37;100062.94;;;18.32;65.10
68822;BME280;55834;50.870;4.606;2023-07-28T07:23:06;100056.66;;;18.69;66.25
68822;BME280;55834;50.870;4.606;2023-07-28T07:25:31;100063.38;;;18.75;64.89
68822;BME280;55834;50.870;4.606;2023-07-28T07:27:57;100065.63;;;18.81;63.98
68822;BME280;55834;50.870;4.606;2023-07-28T07:30:22;100066.41;;;18.94;63.70
68822;BME280;55834;50.870;4.606;2023-07-28T07:32:48;100059.91;;;19.10;63.25
68822;BME280;55834;50.870;4.606;2023-07-28T07:35:13;100064.97;;;18.41;62.42
68822;BME280;55834;50.870;4.606;2023-07-28T07:37:39;100076.38;;;18.68;64.68
68822;BME280;55834;50.870;4.606;2023-07-28T07:40:06;100068.94;;;18.85;64.25
68822;BME280;55834;50.870;4.606;2023-07-28T07:42:48;100067.66;;;18.78;64.12
68822;BME280;55834;50.870;4.606;2023-07-28T07:45:15;100061.13;;;19.06;64.41
68822;BME280;55834;50.870;4.606;2023-07-28T07:47:41;100071.72;;;18.83;65.02
68822;BME280;55834;50.870;4.606;2023-07-28T07:50:07;100074.69;;;18.91;65.09
68822;BME280;55834;50.870;4.606;2023-07-28T07:52:37;100081.84;;;18.67;65.91
68822;BME280;55834;50.870;4.606;2023-07-28T07:55:03;100066.88;;;18.88;66.10
68822;BME280;55834;50.870;4.606;2023-07-28T07:57:29;100071.38;;;18.64;65.56
68822;BME280;55834;50.870;4.606;2023-07-28T07:59:57;100073.75;;;18.80;65.75
68822;BME280;55834;50.870;4.606;2023-07-28T08:02:23;100075.72;;;19.02;64.16
68822;BME280;55834;50.870;4.606;2023-07-28T08:04:48;100079.75;;;19.31;63.72
68822;BME280;55834;50.870;4.606;2023-07-28T08:07:14;100086.88;;;19.55;63.10
68822;BME280;55834;50.870;4.606;2023-07-28T08:09:44;100090.69;;;19.28;62.80
68822;BME280;55834;50.870;4.606;2023-07-28T08:12:09;100097.88;;;19.28;63.45
68822;BME280;55834;50.870;4.606;2023-07-28T08:14:35;100094.41;;;19.50;63.25
68822;BME280;55834;50.870;4.606;2023-07-28T08:17:00;100089.25;;;19.35;63.88
68822;BME280;55834;50.870;4.606;2023-07-28T08:19:25;100093.41;;;18.91;63.48
68822;BME280;55834;50.870;4.606;2023-07-28T08:21:51;100089.81;;;19.52;64.24
68822;BME280;55834;50.870;4.606;2023-07-28T08:24:16;100095.47;;;19.71;62.52
68822;BME280;55834;50.870;4.606;2023-07-28T08:26:42;100095.50;;;19.94;62.30
68822;BME280;55834;50.870;4.606;2023-07-28T08:29:07;100096.03;;;20.10;61.73
68822;BME280;55834;50.870;4.606;2023-07-28T08:31:33;100100.59;;;19.74;61.55
68822;BME280;55834;50.870;4.606;2023-07-28T08:33:58;100104.06;;;19.99;62.48
68822;BME280;55834;50.870;4.606;2023-07-28T08:36:23;100101.31;;;19.88;62.13
68822;BME280;55834;50.870;4.606;2023-07-28T08:38:49;100091.25;;;20.02;62.22
68822;BME280;55834;50.870;4.606;2023-07-28T08:41:14;100103.97;;;20.12;60.97
68822;BME280;55834;50.870;4.606;2023-07-28T08:43:40;100104.06;;;19.99;61.99
68822;BME280;55834;50.870;4.606;2023-07-28T08:46:05;100100.97;;;19.46;63.16
68822;BME280;55834;50.870;4.606;2023-07-28T08:48:31;100103.38;;;19.37;63.72
68822;BME280;55834;50.870;4.606;2023-07-28T08:50:56;100092.56;;;19.74;62.89
68822;BME280;55834;50.870;4.606;2023-07-28T08:53:22;100103.72;;;20.15;62.87
68822;BME280;55834;50.870;4.606;2023-07-28T08:55:47;100103.25;;;20.43;60.81
68822;BME280;55834;50.870;4.606;2023-07-28T08:58:17;100103.72;;;20.15;61.46
68822;BME280;55834;50.870;4.606;2023-07-28T09:00:44;100102.13;;;20.12;60.26
68822;BME280;55834;50.870;4.606;2023-07-28T09:03:10;100105.94;;;19.74;61.14
68822;BME280;55834;50.870;4.606;2023-07-28T09:05:36;100107.13;;;19.94;60.61
68822;BME280;55834;50.870;4.606;2023-07-28T09:08:02;100101.44;;;19.75;61.41
68822;BME280;55834;50.870;4.606;2023-07-28T09:10:40;100107.59;;;19.99;60.88
68822;BME280;55834;50.870;4.606;2023-07-28T09:13:09;100111.94;;;19.89;61.37
68822;BME280;55834;50.870;4.606;2023-07-28T09:15:36;100110.66;;;18.87;62.89
68822;BME280;55834;50.870;4.606;2023-07-28T09:18:01;100106.75;;;19.28;63.51
68822;BME280;55834;50.870;4.606;2023-07-28T09:20:33;100105.47;;;19.80;62.33
68822;BME280;55834;50.870;4.606;2023-07-28T09:23:00;100117.38;;;20.12;61.64
68822;BME280;55834;50.870;4.606;2023-07-28T09:25:28;100120.56;;;19.46;62.26
68822;BME280;55834;50.870;4.606;2023-07-28T09:27:55;100121.88;;;19.41;62.30
68822;BME280;55834;50.870;4.606;2023-07-28T09:30:21;100122.91;;;19.62;63.17
68822;BME280;55834;50.870;4.606;2023-07-28T09:32:48;100122.34;;;19.70;63.16
68822;BME280;55834;50.870;4.606;2023-07-28T09:35:14;100124.75;;;19.61;63.83
68822;BME280;55834;50.870;4.606;2023-07-28T09:37:43;100127.94;;;20.13;62.85
68822;BME280;55834;50.870;4.606;2023-07-28T09:40:10;100125.03;;;20.16;59.69
68822;BME280;55834;50.870;4.606;2023-07-28T09:42:40;100127.22;;;20.45;60.13
68822;BME280;55834;50.870;4.606;2023-07-28T09:45:06;100121.75;;;20.46;60.26
68822;BME280;55834;50.870;4.606;2023-07-28T09:47:34;100128.94;;;20.46;59.77
68822;BME280;55834;50.870;4.606;2023-07-28T09:50:02;100131.25;;;20.39;59.72
68822;BME280;55834;50.870;4.606;2023-07-28T09:52:33;100128.34;;;19.84;59.66
68822;BME280;55834;50.870;4.606;2023-07-28T09:54:59;100135.19;;;19.89;62.04
68822;BME280;55834;50.870;4.606;2023-07-28T09:57:27;100134.03;;;20.15;61.80
68822;BME280;55834;50.870;4.606;2023-07-28T09:59:54;100136.50;;;20.18;62.06
68822;BME280;55834;50.870;4.606;2023-07-28T10:02:21;100147.34;;;19.46;62.21
68822;BME280;55834;50.870;4.606;2023-07-28T10:04:46;100146.41;;;19.58;64.47
68822;BME280;55834;50.870;4.606;2023-07-28T10:07:12;100143.91;;;19.68;65.07
68822;BME280;55834;50.870;4.606;2023-07-28T10:09:41;100138.56;;;20.15;63.57
68822;BME280;55834;50.870;4.606;2023-07-28T10:12:17;100139.91;;;20.32;61.51
68822;BME280;55834;50.870;4.606;2023-07-28T10:14:43;100144.56;;;20.41;61.77
68822;BME280;55834;50.870;4.606;2023-07-28T10:17:15;100141.84;;;20.86;62.00
68822;BME280;55834;50.870;4.606;2023-07-28T10:19:41;100145.84;;;20.13;62.68
68822;BME280;55834;50.870;4.606;2023-07-28T10:22:09;100152.72;;;20.73;63.08
68822;BME280;55834;50.870;4.606;2023-07-28T10:24:55;100144.66;;;20.95;60.39
68822;BME280;55834;50.870;4.606;2023-07-28T10:30:01;100150.16;;;20.71;60.25
68822;BME280;55834;50.870;4.606;2023-07-28T10:32:28;100148.16;;;21.07;59.50
68822;BME280;55834;50.870;4.606;2023-07-28T10:35:06;100143.66;;;21.51;58.89
68822;BME280;55834;50.870;4.606;2023-07-28T10:37:32;100142.44;;;21.76;57.39
68822;BME280;55834;50.870;4.606;2023-07-28T10:40:34;100146.06;;;21.11;58.39
68822;BME280;55834;50.870;4.606;2023-07-28T10:43:01;100143.06;;;20.59;60.97
68822;BME280;55834;50.870;4.606;2023-07-28T10:45:30;100142.22;;;20.47;59.25
68822;BME280;55834;50.870;4.606;2023-07-28T10:47:56;100142.75;;;20.64;60.11
68822;BME280;55834;50.870;4.606;2023-07-28T10:50:26;100146.44;;;21.06;58.78
68822;BME280;55834;50.870;4.606;2023-07-28T10:52:52;100142.69;;;20.86;59.61
68822;BME280;55834;50.870;4.606;2023-07-28T10:55:20;100135.28;;;20.56;60.66
68822;BME280;55834;50.870;4.606;2023-07-28T10:57:47;100139.09;;;21.31;59.72
68822;BME280;55834;50.870;4.606;2023-07-28T11:00:15;100132.94;;;21.40;56.22
68822;BME280;55834;50.870;4.606;2023-07-28T11:02:42;100134.91;;;21.38;57.70
68822;BME280;55834;50.870;4.606;2023-07-28T11:05:21;100129.81;;;21.12;55.85
68822;BME280;55834;50.870;4.606;2023-07-28T11:08:12;100132.28;;;21.15;57.53
68822;BME280;55834;50.870;4.606;2023-07-28T11:10:48;100132.00;;;21.30;57.88
68822;BME280;55834;50.870;4.606;2023-07-28T11:13:13;100126.91;;;21.59;57.90
68822;BME280;55834;50.870;4.606;2023-07-28T11:15:39;100132.84;;;21.42;56.57
68822;BME280;55834;50.870;4.606;2023-07-28T11:18:05;100126.22;;;21.67;56.17
68822;BME280;55834;50.870;4.606;2023-07-28T11:20:31;100130.75;;;21.66;55.73
68822;BME280;55834;50.870;4.606;2023-07-28T11:23:03;100137.38;;;20.64;56.24
68822;BME280;55834;50.870;4.606;2023-07-28T11:25:30;100136.47;;;20.07;56.76
68822;BME280;55834;50.870;4.606;2023-07-28T11:27:56;100141.75;;;20.65;56.51
68822;BME280;55834;50.870;4.606;2023-07-28T11:30:22;100148.09;;;20.53;57.32
68822;BME280;55834;50.870;4.606;2023-07-28T11:32:52;100145.75;;;20.93;55.97
68822;BME280;55834;50.870;4.606;2023-07-28T11:35:20;100145.91;;;21.24;56.66
68822;BME280;55834;50.870;4.606;2023-07-28T11:37:47;100153.06;;;21.46;56.68
68822;BME280;55834;50.870;4.606;2023-07-28T11:40:14;100152.56;;;20.97;54.80
68822;BME280;55834;50.870;4.606;2023-07-28T11:42:44;100156.06;;;21.31;55.42
68822;BME280;55834;50.870;4.606;2023-07-28T11:45:10;100160.28;;;20.90;56.13
68822;BME280;55834;50.870;4.606;2023-07-28T11:47:37;100146.13;;;20.88;55.91
68822;BME280;55834;50.870;4.606;2023-07-28T11:50:03;100155.88;;;20.44;55.77
68822;BME280;55834;50.870;4.606;2023-07-28T11:52:31;100154.66;;;20.93;54.07
68822;BME280;55834;50.870;4.606;2023-07-28T11:55:01;100160.38;;;20.89;54.36
68822;BME280;55834;50.870;4.606;2023-07-28T11:57:29;100158.41;;;21.02;52.49
68822;BME280;55834;50.870;4.606;2023-07-28T12:00:01;100157.94;;;20.97;54.78
68822;BME280;55834;50.870;4.606;2023-07-28T12:02:30;100161.88;;;20.70;54.63
68822;BME280;55834;50.870;4.606;2023-07-28T12:04:56;100157.97;;;21.29;52.39
68822;BME280;55834;50.870;4.606;2023-07-28T12:07:31;100153.78;;;20.25;53.52
68822;BME280;55834;50.870;4.606;2023-07-28T12:10:02;100152.22;;;20.45;53.88
68822;BME280;55834;50.870;4.606;2023-07-28T12:12:30;100146.00;;;20.90;54.59
68822;BME280;55834;50.870;4.606;2023-07-28T12:14:57;100142.75;;;21.83;53.88
68822;BME280;55834;50.870;4.606;2023-07-28T12:17:29;100141.72;;;21.95;52.33
68822;BME280;55834;50.870;4.606;2023-07-28T12:22:28;100144.59;;;22.55;49.61
68822;BME280;55834;50.870;4.606;2023-07-28T12:24:54;100139.69;;;22.39;50.32
68822;BME280;55834;50.870;4.606;2023-07-28T12:27:20;100138.94;;;22.58;48.56
68822;BME280;55834;50.870;4.606;2023-07-28T12:29:49;100133.41;;;21.98;52.59
68822;BME280;55834;50.870;4.606;2023-07-28T12:32:14;100132.56;;;23.00;50.87
68822;BME280;55834;50.870;4.606;2023-07-28T12:34:40;100145.22;;;23.18;49.13
68822;BME280;55834;50.870;4.606;2023-07-28T12:37:06;100151.75;;;21.40;50.81
68822;BME280;55834;50.870;4.606;2023-07-28T12:39:31;100151.25;;;21.67;49.60
68822;BME280;55834;50.870;4.606;2023-07-28T12:41:57;100150.63;;;20.99;48.31
68822;BME280;55834;50.870;4.606;2023-07-28T12:44:22;100158.00;;;21.18;50.16
68822;BME280;55834;50.870;4.606;2023-07-28T12:46:47;100152.22;;;21.45;48.98
68822;BME280;55834;50.870;4.606;2023-07-28T12:49:13;100141.47;;;21.98;47.99
68822;BME280;55834;50.870;4.606;2023-07-28T12:51:40;100145.94;;;22.09;49.34
68822;BME280;55834;50.870;4.606;2023-07-28T12:54:05;100153.41;;;20.98;49.25
68822;BME280;55834;50.870;4.606;2023-07-28T12:56:30;100141.00;;;22.14;49.28
68822;BME280;55834;50.870;4.606;2023-07-28T12:58:56;100141.75;;;22.78;48.58
68822;BME280;55834;50.870;4.606;2023-07-28T13:01:21;100140.28;;;21.91;48.27